Garey, California
Current Conditions -  °F | °C
As of 12:49 AM on Friday 24 Oct 2014 (Local Time) from KSMX Reporting Station
Haze Haze  
Wind Chill: 54°   Ceiling: Unl
Heat Index: 54°   Visibility: 1.2mi
Dew Point: 50°   Wind: 0mph
Humidity: 88%   Direction: NA
Pressure: 29.98"   Gusts: NA
Location:  34.9452°N, 120.389°W
Report Text: KSMX 240749Z AUTO 00000KT 1 1/4SM R12/1800V2200FT BR SCT003 12/10 A2998 RMK AO2
Loading
Personal Weather Stations






























Interactive Weather Map
Tropical Storm Tracking
New forecast layout! Learn more

10-Day Weather Forecast

Advertisements
Track Severe Weather on mobile